sensor_id;sensor_type;location;lat;lon;timestamp;pressure;altitude;pressure_sealevel;temperature;humidity
33191;BME280;19554;42.652;23.364;2023-05-02T00:00:14;94941.25;;;14.22;55.56
33191;BME280;19554;42.652;23.364;2023-05-02T00:02:40;94926.81;;;14.18;55.95
33191;BME280;19554;42.652;23.364;2023-05-02T00:05:05;94922.56;;;14.17;55.18
33191;BME280;19554;42.652;23.364;2023-05-02T00:07:32;94947.09;;;14.25;55.74
33191;BME280;19554;42.652;23.364;2023-05-02T00:09:57;94945.81;;;14.22;55.79
33191;BME280;19554;42.652;23.364;2023-05-02T00:12:23;94806.06;;;13.32;55.87
33191;BME280;19554;42.652;23.364;2023-05-02T00:14:48;94942.13;;;14.18;55.92
33191;BME280;19554;42.652;23.364;2023-05-02T00:17:20;94949.97;;;14.28;55.79
33191;BME280;19554;42.652;23.364;2023-05-02T00:19:46;94960.94;;;14.18;56.08
33191;BME280;19554;42.652;23.364;2023-05-02T00:22:11;94936.50;;;14.06;56.26
33191;BME280;19554;42.652;23.364;2023-05-02T00:24:37;94953.97;;;14.17;56.02
33191;BME280;19554;42.652;23.364;2023-05-02T00:27:02;94956.53;;;14.22;56.21
33191;BME280;19554;42.652;23.364;2023-05-02T00:29:29;94931.75;;;13.89;56.61
33191;BME280;19554;42.652;23.364;2023-05-02T00:31:54;94957.59;;;13.98;57.00
33191;BME280;19554;42.652;23.364;2023-05-02T00:34:19;94955.00;;;13.93;57.24
33191;BME280;19554;42.652;23.364;2023-05-02T00:36:45;94958.09;;;13.73;57.79
33191;BME280;19554;42.652;23.364;2023-05-02T00:39:10;94957.81;;;13.74;58.13
33191;BME280;19554;42.652;23.364;2023-05-02T00:41:36;94974.69;;;13.75;58.14
33191;BME280;19554;42.652;23.364;2023-05-02T00:44:01;94979.47;;;13.78;58.19
33191;BME280;19554;42.652;23.364;2023-05-02T00:46:27;94979.94;;;13.80;58.21
33191;BME280;19554;42.652;23.364;2023-05-02T00:48:52;94961.75;;;13.77;57.99
33191;BME280;19554;42.652;23.364;2023-05-02T00:51:18;94985.03;;;13.95;57.78
33191;BME280;19554;42.652;23.364;2023-05-02T00:53:44;94983.63;;;13.84;58.21
33191;BME280;19554;42.652;23.364;2023-05-02T00:56:09;94981.84;;;13.93;58.20
33191;BME280;19554;42.652;23.364;2023-05-02T00:58:36;94974.88;;;13.92;58.21
33191;BME280;19554;42.652;23.364;2023-05-02T01:11:55;94981.06;;;13.79;58.86
33191;BME280;19554;42.652;23.364;2023-05-02T01:14:22;94946.84;;;13.43;59.53
33191;BME280;19554;42.652;23.364;2023-05-02T01:16:51;94977.56;;;13.65;59.61
33191;BME280;19554;42.652;23.364;2023-05-02T01:19:31;94966.94;;;13.60;59.62
33191;BME280;19554;42.652;23.364;2023-05-02T01:22:01;94961.97;;;13.53;59.84
33191;BME280;19554;42.652;23.364;2023-05-02T01:24:33;94967.91;;;13.50;60.15
33191;BME280;19554;42.652;23.364;2023-05-02T01:27:10;94971.63;;;13.54;60.09
33191;BME280;19554;42.652;23.364;2023-05-02T01:29:39;94923.59;;;13.25;60.06
33191;BME280;19554;42.652;23.364;2023-05-02T01:32:06;94935.44;;;13.24;60.49
33191;BME280;19554;42.652;23.364;2023-05-02T01:34:35;94966.91;;;13.46;60.45
33191;BME280;19554;42.652;23.364;2023-05-02T01:37:04;94948.72;;;13.29;60.47
33191;BME280;19554;42.652;23.364;2023-05-02T01:39:31;94959.00;;;13.22;60.73
33191;BME280;19554;42.652;23.364;2023-05-02T01:41:58;94965.06;;;13.14;60.97
33191;BME280;19554;42.652;23.364;2023-05-02T01:44:27;94947.28;;;12.85;61.84
33191;BME280;19554;42.652;23.364;2023-05-02T01:46:55;94974.53;;;12.92;62.30
33191;BME280;19554;42.652;23.364;2023-05-02T01:49:22;94961.22;;;12.68;62.86
33191;BME280;19554;42.652;23.364;2023-05-02T01:51:49;94961.53;;;12.67;62.78
33191;BME280;19554;42.652;23.364;2023-05-02T01:54:17;94989.41;;;12.98;62.58
33191;BME280;19554;42.652;23.364;2023-05-02T01:56:44;94954.16;;;12.59;63.24
33191;BME280;19554;42.652;23.364;2023-05-02T01:59:14;94957.41;;;12.55;63.47
33191;BME280;19554;42.652;23.364;2023-05-02T02:01:42;94983.75;;;12.67;63.70
33191;BME280;19554;42.652;23.364;2023-05-02T02:04:08;94953.91;;;12.41;64.13
33191;BME280;19554;42.652;23.364;2023-05-02T02:06:35;94983.09;;;12.56;64.13
33191;BME280;19554;42.652;23.364;2023-05-02T02:09:01;94977.31;;;12.49;64.32
33191;BME280;19554;42.652;23.364;2023-05-02T02:11:35;94981.38;;;12.47;64.43
33191;BME280;19554;42.652;23.364;2023-05-02T02:14:06;94963.91;;;12.30;64.76
33191;BME280;19554;42.652;23.364;2023-05-02T02:16:37;94945.72;;;12.14;65.16
33191;BME280;19554;42.652;23.364;2023-05-02T02:19:09;94975.44;;;12.31;65.39
33191;BME280;19554;42.652;23.364;2023-05-02T02:21:38;94986.66;;;12.33;65.21
33191;BME280;19554;42.652;23.364;2023-05-02T02:24:05;94980.28;;;12.29;65.32
33191;BME280;19554;42.652;23.364;2023-05-02T02:26:32;95001.97;;;12.08;66.25
33191;BME280;19554;42.652;23.364;2023-05-02T02:28:59;94950.25;;;11.70;66.64
33191;BME280;19554;42.652;23.364;2023-05-02T02:31:32;94981.69;;;12.02;66.48
33191;BME280;19554;42.652;23.364;2023-05-02T02:33:58;94977.47;;;11.96;66.93
33191;BME280;19554;42.652;23.364;2023-05-02T02:42:15;94977.00;;;11.94;66.56
33191;BME280;19554;42.652;23.364;2023-05-02T02:47:31;94971.31;;;12.20;65.64
33191;BME280;19554;42.652;23.364;2023-05-02T02:50:35;94974.06;;;12.15;65.72
33191;BME280;19554;42.652;23.364;2023-05-02T02:53:08;94970.66;;;12.28;65.27
33191;BME280;19554;42.652;23.364;2023-05-02T02:58:20;94950.75;;;12.15;64.96
33191;BME280;19554;42.652;23.364;2023-05-02T03:00:50;94980.06;;;12.44;64.76
33191;BME280;19554;42.652;23.364;2023-05-02T03:03:16;94978.84;;;12.37;64.90
33191;BME280;19554;42.652;23.364;2023-05-02T03:05:43;94989.91;;;12.30;65.26
33191;BME280;19554;42.652;23.364;2023-05-02T03:08:09;94980.81;;;12.31;65.22
33191;BME280;19554;42.652;23.364;2023-05-02T03:10:34;94979.94;;;12.36;64.96
33191;BME280;19554;42.652;23.364;2023-05-02T03:13:00;94959.53;;;12.21;64.55
33191;BME280;19554;42.652;23.364;2023-05-02T03:18:18;94945.78;;;12.08;64.89
33191;BME280;19554;42.652;23.364;2023-05-02T03:20:43;94979.41;;;12.15;65.16
33191;BME280;19554;42.652;23.364;2023-05-02T03:23:09;95001.03;;;12.18;65.51
33191;BME280;19554;42.652;23.364;2023-05-02T03:25:35;94999.69;;;12.21;65.33
33191;BME280;19554;42.652;23.364;2023-05-02T03:28:01;95019.06;;;12.31;65.36
33191;BME280;19554;42.652;23.364;2023-05-02T03:30:26;95027.38;;;12.30;65.30
33191;BME280;19554;42.652;23.364;2023-05-02T03:32:52;95008.41;;;12.07;65.78
33191;BME280;19554;42.652;23.364;2023-05-02T03:35:17;95022.16;;;12.20;65.67
33191;BME280;19554;42.652;23.364;2023-05-02T03:37:43;95025.34;;;12.22;65.56
33191;BME280;19554;42.652;23.364;2023-05-02T03:40:09;94975.41;;;11.93;65.68
33191;BME280;19554;42.652;23.364;2023-05-02T03:42:35;95014.56;;;12.27;65.35
33191;BME280;19554;42.652;23.364;2023-05-02T03:45:07;95014.38;;;12.42;65.23
33191;BME280;19554;42.652;23.364;2023-05-02T03:47:32;95021.25;;;12.67;64.40
33191;BME280;19554;42.652;23.364;2023-05-02T03:49:58;94998.66;;;12.73;63.52
33191;BME280;19554;42.652;23.364;2023-05-02T03:52:24;95002.91;;;12.93;62.76
33191;BME280;19554;42.652;23.364;2023-05-02T03:54:49;95019.53;;;13.28;61.73
33191;BME280;19554;42.652;23.364;2023-05-02T03:57:16;95003.44;;;13.28;61.44
33191;BME280;19554;42.652;23.364;2023-05-02T03:59:41;94993.84;;;13.41;60.61
33191;BME280;19554;42.652;23.364;2023-05-02T04:02:07;94985.81;;;13.55;59.89
33191;BME280;19554;42.652;23.364;2023-05-02T04:04:33;95019.31;;;13.98;59.16
33191;BME280;19554;42.652;23.364;2023-05-02T04:06:58;95012.03;;;14.27;58.43
33191;BME280;19554;42.652;23.364;2023-05-02T04:09:24;94937.00;;;13.94;57.10
33191;BME280;19554;42.652;23.364;2023-05-02T04:11:50;95014.28;;;14.61;56.88
33191;BME280;19554;42.652;23.364;2023-05-02T04:14:16;95014.16;;;14.66;56.54
33191;BME280;19554;42.652;23.364;2023-05-02T04:16:46;94895.38;;;13.96;56.14
33191;BME280;19554;42.652;23.364;2023-05-02T04:19:12;95024.31;;;14.69;56.11
33191;BME280;19554;42.652;23.364;2023-05-02T04:21:37;95013.59;;;14.41;56.43
33191;BME280;19554;42.652;23.364;2023-05-02T04:24:03;94982.75;;;14.39;56.28
33191;BME280;19554;42.652;23.364;2023-05-02T04:26:28;94983.63;;;14.62;55.53
33191;BME280;19554;42.652;23.364;2023-05-02T04:28:54;95022.50;;;14.78;55.27
33191;BME280;19554;42.652;23.364;2023-05-02T04:31:19;95013.56;;;14.69;55.25
33191;BME280;19554;42.652;23.364;2023-05-02T04:33:44;94953.78;;;14.13;55.57
33191;BME280;19554;42.652;23.364;2023-05-02T04:36:13;95029.09;;;14.72;55.56
33191;BME280;19554;42.652;23.364;2023-05-02T04:38:38;95013.19;;;14.62;55.18
33191;BME280;19554;42.652;23.364;2023-05-02T04:41:04;95018.50;;;14.53;54.92
33191;BME280;19554;42.652;23.364;2023-05-02T04:43:29;95036.66;;;14.56;55.17
33191;BME280;19554;42.652;23.364;2023-05-02T04:45:55;95050.22;;;14.37;55.23
33191;BME280;19554;42.652;23.364;2023-05-02T04:48:20;95033.50;;;14.40;55.22
33191;BME280;19554;42.652;23.364;2023-05-02T04:50:46;95025.13;;;14.56;54.90
33191;BME280;19554;42.652;23.364;2023-05-02T04:53:11;94989.38;;;14.19;54.79
33191;BME280;19554;42.652;23.364;2023-05-02T04:55:37;95039.25;;;14.61;54.33
33191;BME280;19554;42.652;23.364;2023-05-02T04:58:02;95038.66;;;14.64;54.15
33191;BME280;19554;42.652;23.364;2023-05-02T05:00:28;94987.38;;;14.25;54.50
33191;BME280;19554;42.652;23.364;2023-05-02T05:02:54;95003.84;;;14.45;53.62
33191;BME280;19554;42.652;23.364;2023-05-02T05:05:19;95035.28;;;14.31;55.19
33191;BME280;19554;42.652;23.364;2023-05-02T05:07:45;95020.41;;;13.97;55.89
33191;BME280;19554;42.652;23.364;2023-05-02T05:10:10;95025.56;;;14.21;55.40
33191;BME280;19554;42.652;23.364;2023-05-02T05:12:35;95007.06;;;14.20;54.94
33191;BME280;19554;42.652;23.364;2023-05-02T05:15:01;95050.03;;;14.20;55.29
33191;BME280;19554;42.652;23.364;2023-05-02T05:17:26;95020.31;;;14.03;55.72
33191;BME280;19554;42.652;23.364;2023-05-02T05:19:52;95053.28;;;14.44;54.91
33191;BME280;19554;42.652;23.364;2023-05-02T05:22:17;95015.31;;;14.37;53.86
33191;BME280;19554;42.652;23.364;2023-05-02T05:24:52;95039.09;;;14.30;54.00
33191;BME280;19554;42.652;23.364;2023-05-02T05:27:18;95062.16;;;14.31;54.24
33191;BME280;19554;42.652;23.364;2023-05-02T05:29:43;95050.13;;;14.15;54.47
33191;BME280;19554;42.652;23.364;2023-05-02T05:32:09;95065.34;;;14.19;54.38
33191;BME280;19554;42.652;23.364;2023-05-02T05:34:34;95063.44;;;14.20;54.55
33191;BME280;19554;42.652;23.364;2023-05-02T05:37:00;95072.09;;;14.17;54.41
33191;BME280;19554;42.652;23.364;2023-05-02T05:39:26;95056.19;;;14.34;54.10
33191;BME280;19554;42.652;23.364;2023-05-02T05:41:51;95055.78;;;14.55;53.30
33191;BME280;19554;42.652;23.364;2023-05-02T05:44:17;95011.94;;;14.18;53.21
33191;BME280;19554;42.652;23.364;2023-05-02T05:46:42;95007.47;;;14.13;53.22
33191;BME280;19554;42.652;23.364;2023-05-02T05:49:07;95062.53;;;14.38;53.77
33191;BME280;19554;42.652;23.364;2023-05-02T05:51:34;95043.66;;;14.16;54.00
33191;BME280;19554;42.652;23.364;2023-05-02T05:53:59;95065.13;;;14.71;53.20
33191;BME280;19554;42.652;23.364;2023-05-02T05:56:24;95017.03;;;14.69;51.99
33191;BME280;19554;42.652;23.364;2023-05-02T05:58:50;95065.38;;;14.83;52.18
33191;BME280;19554;42.652;23.364;2023-05-02T06:01:15;95022.50;;;14.78;51.81
33191;BME280;19554;42.652;23.364;2023-05-02T06:03:41;95072.63;;;15.41;50.52
33191;BME280;19554;42.652;23.364;2023-05-02T06:06:06;95060.22;;;15.09;50.62
33191;BME280;19554;42.652;23.364;2023-05-02T06:08:31;95080.28;;;15.26;50.25
33191;BME280;19554;42.652;23.364;2023-05-02T06:10:57;95023.72;;;14.72;50.81
33191;BME280;19554;42.652;23.364;2023-05-02T06:13:22;95078.06;;;15.28;50.10
33191;BME280;19554;42.652;23.364;2023-05-02T06:15:47;95074.09;;;15.48;49.67
33191;BME280;19554;42.652;23.364;2023-05-02T06:18:13;95059.78;;;15.16;50.30
33191;BME280;19554;42.652;23.364;2023-05-02T06:20:38;95059.31;;;15.59;49.87
33191;BME280;19554;42.652;23.364;2023-05-02T06:23:04;95062.47;;;15.83;48.06
33191;BME280;19554;42.652;23.364;2023-05-02T06:25:30;95044.94;;;15.41;49.03
33191;BME280;19554;42.652;23.364;2023-05-02T06:27:56;95055.75;;;15.50;49.61
33191;BME280;19554;42.652;23.364;2023-05-02T06:30:22;95053.09;;;15.58;48.53
33191;BME280;19554;42.652;23.364;2023-05-02T06:32:47;95056.31;;;15.92;48.50
33191;BME280;19554;42.652;23.364;2023-05-02T06:35:13;95056.50;;;16.44;46.50
33191;BME280;19554;42.652;23.364;2023-05-02T06:37:38;95049.75;;;16.72;45.80
33191;BME280;19554;42.652;23.364;2023-05-02T06:40:03;95056.63;;;16.87;44.73
33191;BME280;19554;42.652;23.364;2023-05-02T06:42:29;95019.13;;;16.59;45.61
33191;BME280;19554;42.652;23.364;2023-05-02T06:44:55;95055.81;;;17.21;44.44
33191;BME280;19554;42.652;23.364;2023-05-02T06:47:20;95055.19;;;17.42;43.89
33191;BME280;19554;42.652;23.364;2023-05-02T06:49:49;95054.06;;;17.34;43.84
33191;BME280;19554;42.652;23.364;2023-05-02T06:52:14;95042.13;;;17.61;43.04
33191;BME280;19554;42.652;23.364;2023-05-02T06:54:40;95044.50;;;17.63;42.30
33191;BME280;19554;42.652;23.364;2023-05-02T06:57:06;95050.72;;;17.46;42.49
33191;BME280;19554;42.652;23.364;2023-05-02T06:59:32;95046.47;;;17.27;42.85
33191;BME280;19554;42.652;23.364;2023-05-02T07:01:57;95019.97;;;16.95;43.11
33191;BME280;19554;42.652;23.364;2023-05-02T07:04:22;95047.72;;;17.13;43.24
33191;BME280;19554;42.652;23.364;2023-05-02T07:06:48;95053.59;;;17.41;41.90
33191;BME280;19554;42.652;23.364;2023-05-02T07:09:13;95053.41;;;17.46;41.30
33191;BME280;19554;42.652;23.364;2023-05-02T07:11:38;95015.69;;;17.11;41.61
33191;BME280;19554;42.652;23.364;2023-05-02T07:14:04;95051.38;;;17.25;42.12
33191;BME280;19554;42.652;23.364;2023-05-02T07:16:29;95043.75;;;17.45;41.93
33191;BME280;19554;42.652;23.364;2023-05-02T07:18:55;95021.50;;;17.48;40.27
33191;BME280;19554;42.652;23.364;2023-05-02T07:21:20;95014.09;;;17.27;40.55
33191;BME280;19554;42.652;23.364;2023-05-02T07:23:45;95045.47;;;17.49;41.76
33191;BME280;19554;42.652;23.364;2023-05-02T07:26:11;95052.28;;;17.47;41.42
33191;BME280;19554;42.652;23.364;2023-05-02T07:28:36;95017.25;;;17.38;40.55
33191;BME280;19554;42.652;23.364;2023-05-02T07:31:01;95041.16;;;17.57;41.07
33191;BME280;19554;42.652;23.364;2023-05-02T07:33:27;95011.28;;;17.80;40.20
33191;BME280;19554;42.652;23.364;2023-05-02T07:35:54;95046.75;;;18.16;39.76
33191;BME280;19554;42.652;23.364;2023-05-02T07:38:20;95005.66;;;18.02;39.25
33191;BME280;19554;42.652;23.364;2023-05-02T07:40:45;95038.41;;;18.30;39.02
33191;BME280;19554;42.652;23.364;2023-05-02T07:43:12;95034.03;;;18.46;38.91
33191;BME280;19554;42.652;23.364;2023-05-02T07:45:37;95048.41;;;18.59;38.56
33191;BME280;19554;42.652;23.364;2023-05-02T07:48:02;95061.44;;;18.36;38.55
33191;BME280;19554;42.652;23.364;2023-05-02T07:50:28;95048.94;;;18.53;38.33
33191;BME280;19554;42.652;23.364;2023-05-02T07:52:54;95024.94;;;18.51;38.33
33191;BME280;19554;42.652;23.364;2023-05-02T07:55:20;95050.94;;;18.64;38.39
33191;BME280;19554;42.652;23.364;2023-05-02T07:57:45;95052.63;;;18.48;38.05
33191;BME280;19554;42.652;23.364;2023-05-02T08:00:11;95040.41;;;18.42;38.55
33191;BME280;19554;42.652;23.364;2023-05-02T08:02:36;95018.78;;;18.12;38.91
33191;BME280;19554;42.652;23.364;2023-05-02T08:05:03;95013.50;;;17.86;39.11
33191;BME280;19554;42.652;23.364;2023-05-02T08:07:28;95007.75;;;17.88;39.48
33191;BME280;19554;42.652;23.364;2023-05-02T08:09:53;95008.53;;;17.97;39.41
33191;BME280;19554;42.652;23.364;2023-05-02T08:12:19;95003.50;;;18.16;38.93
33191;BME280;19554;42.652;23.364;2023-05-02T08:14:44;95034.56;;;18.40;38.49
33191;BME280;19554;42.652;23.364;2023-05-02T08:17:10;95023.25;;;18.08;39.03
33191;BME280;19554;42.652;23.364;2023-05-02T08:19:36;95030.88;;;18.65;38.13
33191;BME280;19554;42.652;23.364;2023-05-02T08:22:01;95006.09;;;18.63;37.97
33191;BME280;19554;42.652;23.364;2023-05-02T08:24:27;95015.63;;;18.40;38.11
33191;BME280;19554;42.652;23.364;2023-05-02T08:26:52;95010.94;;;18.79;37.73
33191;BME280;19554;42.652;23.364;2023-05-02T08:29:17;95043.28;;;18.96;37.42
33191;BME280;19554;42.652;23.364;2023-05-02T08:31:43;95017.66;;;18.73;37.73
33191;BME280;19554;42.652;23.364;2023-05-02T08:34:08;95019.97;;;18.83;36.91
33191;BME280;19554;42.652;23.364;2023-05-02T08:36:34;95041.56;;;18.62;37.75
33191;BME280;19554;42.652;23.364;2023-05-02T08:38:59;95033.66;;;18.57;37.83
33191;BME280;19554;42.652;23.364;2023-05-02T08:41:27;95036.81;;;18.59;38.15
33191;BME280;19554;42.652;23.364;2023-05-02T08:43:53;95043.75;;;18.77;37.91
33191;BME280;19554;42.652;23.364;2023-05-02T08:46:21;95031.06;;;18.90;37.26
33191;BME280;19554;42.652;23.364;2023-05-02T08:48:49;95026.84;;;19.01;37.25
33191;BME280;19554;42.652;23.364;2023-05-02T08:51:15;95001.91;;;18.96;36.86
33191;BME280;19554;42.652;23.364;2023-05-02T08:53:41;95016.88;;;19.47;36.80
33191;BME280;19554;42.652;23.364;2023-05-02T08:56:08;95019.72;;;19.51;36.19
33191;BME280;19554;42.652;23.364;2023-05-02T08:58:37;95029.81;;;19.41;36.07
33191;BME280;19554;42.652;23.364;2023-05-02T09:01:09;95026.38;;;19.53;35.10
33191;BME280;19554;42.652;23.364;2023-05-02T09:03:37;95005.25;;;19.68;35.67
33191;BME280;19554;42.652;23.364;2023-05-02T09:06:11;95022.31;;;19.47;35.86
33191;BME280;19554;42.652;23.364;2023-05-02T09:08:38;95034.88;;;19.10;36.23
33191;BME280;19554;42.652;23.364;2023-05-02T09:11:05;95031.19;;;18.73;36.19
33191;BME280;19554;42.652;23.364;2023-05-02T09:13:47;95022.09;;;18.77;35.92
33191;BME280;19554;42.652;23.364;2023-05-02T09:16:13;95010.75;;;18.84;35.49
33191;BME280;19554;42.652;23.364;2023-05-02T09:18:41;94999.78;;;19.22;35.55
33191;BME280;19554;42.652;23.364;2023-05-02T09:21:09;95005.34;;;19.38;34.70
33191;BME280;19554;42.652;23.364;2023-05-02T09:23:41;95009.09;;;19.46;35.05
33191;BME280;19554;42.652;23.364;2023-05-02T09:28:53;95008.38;;;19.03;35.59
33191;BME280;19554;42.652;23.364;2023-05-02T09:33:50;94978.38;;;19.29;34.04
33191;BME280;19554;42.652;23.364;2023-05-02T09:36:18;94993.03;;;19.28;34.97
33191;BME280;19554;42.652;23.364;2023-05-02T09:38:46;94992.03;;;19.33;34.36
33191;BME280;19554;42.652;23.364;2023-05-02T09:41:11;95006.16;;;19.38;34.68
33191;BME280;19554;42.652;23.364;2023-05-02T09:43:38;94989.03;;;19.47;33.80
33191;BME280;19554;42.652;23.364;2023-05-02T09:46:05;94974.47;;;19.51;33.25
33191;BME280;19554;42.652;23.364;2023-05-02T09:48:35;94980.88;;;19.68;34.25
33191;BME280;19554;42.652;23.364;2023-05-02T09:51:18;95006.22;;;19.30;33.43
33191;BME280;19554;42.652;23.364;2023-05-02T09:53:44;94974.22;;;19.44;33.75
33191;BME280;19554;42.652;23.364;2023-05-02T09:56:11;94985.06;;;19.44;33.45
33191;BME280;19554;42.652;23.364;2023-05-02T09:58:36;94981.25;;;19.57;33.17
33191;BME280;19554;42.652;23.364;2023-05-02T10:01:02;94989.06;;;19.26;33.76
33191;BME280;19554;42.652;23.364;2023-05-02T10:03:28;94931.28;;;19.09;33.91
33191;BME280;19554;42.652;23.364;2023-05-02T10:05:54;94976.06;;;19.52;33.58
33191;BME280;19554;42.652;23.364;2023-05-02T10:08:23;94972.00;;;19.58;34.17
33191;BME280;19554;42.652;23.364;2023-05-02T10:10:59;94965.06;;;19.82;33.11
33191;BME280;19554;42.652;23.364;2023-05-02T10:13:31;94961.69;;;19.85;33.47
33191;BME280;19554;42.652;23.364;2023-05-02T10:16:00;94910.16;;;19.48;32.39
33191;BME280;19554;42.652;23.364;2023-05-02T10:19:02;94964.19;;;19.90;32.09
33191;BME280;19554;42.652;23.364;2023-05-02T10:21:28;94961.69;;;19.85;32.24
33191;BME280;19554;42.652;23.364;2023-05-02T10:23:55;94955.38;;;20.05;31.78
33191;BME280;19554;42.652;23.364;2023-05-02T10:26:21;94953.31;;;20.27;31.69
33191;BME280;19554;42.652;23.364;2023-05-02T10:28:50;94888.34;;;19.90;31.92
33191;BME280;19554;42.652;23.364;2023-05-02T10:31:17;94952.00;;;20.08;31.91
33191;BME280;19554;42.652;23.364;2023-05-02T10:33:43;94949.75;;;19.98;31.83
33191;BME280;19554;42.652;23.364;2023-05-02T10:36:10;94947.72;;;20.07;31.56
33191;BME280;19554;42.652;23.364;2023-05-02T10:38:39;94924.25;;;19.87;31.24
33191;BME280;19554;42.652;23.364;2023-05-02T10:41:22;94954.03;;;19.87;31.47
33191;BME280;19554;42.652;23.364;2023-05-02T10:43:48;94940.13;;;19.64;31.35
33191;BME280;19554;42.652;23.364;2023-05-02T10:46:31;94931.66;;;19.65;31.29
33191;BME280;19554;42.652;23.364;2023-05-02T10:49:17;94931.22;;;19.76;31.80
33191;BME280;19554;42.652;23.364;2023-05-02T10:51:43;94922.75;;;19.77;32.28
33191;BME280;19554;42.652;23.364;2023-05-02T10:54:24;94930.09;;;19.89;31.64
33191;BME280;19554;42.652;23.364;2023-05-02T10:59:32;94939.34;;;19.63;31.78
33191;BME280;19554;42.652;23.364;2023-05-02T11:01:58;94865.38;;;19.51;31.39
33191;BME280;19554;42.652;23.364;2023-05-02T11:04:23;94932.56;;;20.06;31.30
33191;BME280;19554;42.652;23.364;2023-05-02T11:11:50;94892.84;;;19.86;31.23
33191;BME280;19554;42.652;23.364;2023-05-02T11:19:23;94914.28;;;19.67;32.46
33191;BME280;19554;42.652;23.364;2023-05-02T11:21:48;94921.63;;;19.78;32.25
33191;BME280;19554;42.652;23.364;2023-05-02T11:24:39;94934.56;;;19.60;32.60
33191;BME280;19554;42.652;23.364;2023-05-02T11:30:03;94933.66;;;19.56;31.96
33191;BME280;19554;42.652;23.364;2023-05-02T11:35:24;94898.88;;;19.34;33.03
33191;BME280;19554;42.652;23.364;2023-05-02T11:38:03;94898.91;;;19.58;32.74
33191;BME280;19554;42.652;23.364;2023-05-02T11:40:30;94901.44;;;19.63;32.49
33191;BME280;19554;42.652;23.364;2023-05-02T11:42:57;94897.91;;;19.75;32.79
33191;BME280;19554;42.652;23.364;2023-05-02T11:45:35;94905.03;;;19.68;32.64
33191;BME280;19554;42.652;23.364;2023-05-02T11:48:03;94897.59;;;19.64;33.04
33191;BME280;19554;42.652;23.364;2023-05-02T11:50:31;94898.25;;;19.86;32.56
33191;BME280;19554;42.652;23.364;2023-05-02T11:52:57;94889.81;;;19.87;32.63
33191;BME280;19554;42.652;23.364;2023-05-02T11:55:22;94893.28;;;19.76;33.01
33191;BME280;19554;42.652;23.364;2023-05-02T11:57:48;94897.34;;;19.82;32.40
33191;BME280;19554;42.652;23.364;2023-05-02T12:00:14;94901.19;;;19.81;33.01
33191;BME280;19554;42.652;23.364;2023-05-02T12:02:41;94888.13;;;19.83;33.04
33191;BME280;19554;42.652;23.364;2023-05-02T12:05:09;94884.81;;;19.89;32.71
33191;BME280;19554;42.652;23.364;2023-05-02T12:07:39;94853.47;;;19.64;32.88
33191;BME280;19554;42.652;23.364;2023-05-02T12:10:05;94878.84;;;19.96;32.40
33191;BME280;19554;42.652;23.364;2023-05-02T12:12:31;94879.41;;;19.89;32.45
33191;BME280;19554;42.652;23.364;2023-05-02T12:14:57;94858.75;;;19.60;32.63
33191;BME280;19554;42.652;23.364;2023-05-02T12:17:23;94841.34;;;19.61;32.63
33191;BME280;19554;42.652;23.364;2023-05-02T12:19:49;94871.28;;;19.65;32.72
33191;BME280;19554;42.652;23.364;2023-05-02T12:22:15;94876.38;;;19.79;32.36
33191;BME280;19554;42.652;23.364;2023-05-02T12:24:41;94880.88;;;19.75;32.52
33191;BME280;19554;42.652;23.364;2023-05-02T12:27:16;94862.38;;;19.77;32.48
33191;BME280;19554;42.652;23.364;2023-05-02T12:29:44;94857.72;;;19.89;31.74
33191;BME280;19554;42.652;23.364;2023-05-02T12:32:10;94849.50;;;19.86;31.67
33191;BME280;19554;42.652;23.364;2023-05-02T12:34:37;94848.34;;;20.11;32.00
33191;BME280;19554;42.652;23.364;2023-05-02T12:37:04;94780.44;;;19.80;31.41
33191;BME280;19554;42.652;23.364;2023-05-02T12:39:48;94807.53;;;19.80;30.73
33191;BME280;19554;42.652;23.364;2023-05-02T12:42:15;94852.88;;;19.95;30.85
33191;BME280;19554;42.652;23.364;2023-05-02T12:44:43;94783.03;;;19.27;31.31
33191;BME280;19554;42.652;23.364;2023-05-02T12:47:11;94852.78;;;19.67;31.24
33191;BME280;19554;42.652;23.364;2023-05-02T12:49:54;94763.75;;;19.16;31.31
33191;BME280;19554;42.652;23.364;2023-05-02T12:52:45;94836.66;;;19.71;31.21
33191;BME280;19554;42.652;23.364;2023-05-02T12:55:21;94682.84;;;18.75;31.27
33191;BME280;19554;42.652;23.364;2023-05-02T12:58:00;94813.28;;;19.91;31.32
33191;BME280;19554;42.652;23.364;2023-05-02T13:00:26;94826.25;;;19.97;31.22
33191;BME280;19554;42.652;23.364;2023-05-02T13:02:51;94802.81;;;19.77;30.88
33191;BME280;19554;42.652;23.364;2023-05-02T13:05:17;94828.63;;;19.86;30.77
33191;BME280;19554;42.652;23.364;2023-05-02T13:07:44;94824.44;;;19.89;30.79
33191;BME280;19554;42.652;23.364;2023-05-02T13:10:10;94814.09;;;19.67;30.36
33191;BME280;19554;42.652;23.364;2023-05-02T13:12:36;94825.56;;;19.76;31.00
33191;BME280;19554;42.652;23.364;2023-05-02T13:15:03;94834.38;;;19.60;30.79
33191;BME280;19554;42.652;23.364;2023-05-02T13:17:28;94839.78;;;19.60;31.03
33191;BME280;19554;42.652;23.364;2023-05-02T13:19:54;94844.41;;;19.48;30.65
33191;BME280;19554;42.652;23.364;2023-05-02T13:22:19;94833.25;;;19.61;31.34
33191;BME280;19554;42.652;23.364;2023-05-02T13:24:44;94830.56;;;19.74;30.99
33191;BME280;19554;42.652;23.364;2023-05-02T13:27:10;94849.25;;;19.54;30.91
33191;BME280;19554;42.652;23.364;2023-05-02T13:29:36;94828.38;;;19.55;30.69
33191;BME280;19554;42.652;23.364;2023-05-02T13:32:01;94824.00;;;19.50;31.11
33191;BME280;19554;42.652;23.364;2023-05-02T13:34:27;94831.66;;;19.60;31.25
33191;BME280;19554;42.652;23.364;2023-05-02T13:36:52;94835.94;;;19.61;30.94
33191;BME280;19554;42.652;23.364;2023-05-02T13:39:18;94824.34;;;19.73;31.06